createdAt,value
2018-08-13T00:01:24.865Z,2.87
2018-08-13T00:03:54.854Z,4.50
2018-08-13T00:06:24.922Z,3.47
2018-08-13T00:08:54.602Z,3.27
2018-08-13T00:11:24.360Z,2.93
2018-08-13T00:13:54.525Z,5.43
2018-08-13T00:16:24.459Z,8.37
2018-08-13T00:18:54.269Z,5.10
2018-08-13T00:21:24.010Z,7.20
2018-08-13T00:23:54.493Z,4.30
2018-08-13T00:26:23.980Z,3.80
2018-08-13T00:28:53.630Z,4.07
2018-08-13T00:31:23.481Z,4.83
2018-08-13T00:33:53.341Z,3.10
2018-08-13T00:36:23.034Z,4.30
2018-08-13T00:38:52.893Z,3.10
2018-08-13T00:41:22.454Z,3.00
2018-08-13T00:43:52.272Z,3.63
2018-08-13T00:46:22.581Z,4.43
2018-08-13T00:48:52.113Z,3.93
2018-08-13T00:51:22.969Z,2.87
2018-08-13T00:53:52.945Z,3.37
2018-08-13T00:56:22.505Z,3.90
2018-08-13T00:58:52.348Z,2.77
2018-08-13T01:01:22.213Z,4.17
2018-08-13T01:03:52.560Z,3.10
2018-08-13T01:06:22.789Z,3.17
2018-08-13T01:08:53.139Z,3.33
2018-08-13T01:11:23.077Z,4.83
2018-08-13T01:13:52.620Z,6.00
2018-08-13T01:16:22.513Z,3.27
2018-08-13T01:18:52.030Z,5.13
2018-08-13T01:21:21.583Z,4.07
2018-08-13T01:23:51.965Z,3.47
2018-08-13T01:26:21.657Z,3.10
2018-08-13T01:28:51.664Z,3.73
2018-08-13T01:31:21.894Z,3.27
2018-08-13T01:33:51.421Z,3.97
2018-08-13T01:36:21.200Z,3.90
2018-08-13T01:38:51.281Z,2.80
2018-08-13T01:41:21.421Z,2.73
2018-08-13T01:43:50.946Z,3.10
2018-08-13T01:46:20.834Z,4.70
2018-08-13T01:48:50.370Z,3.57
2018-08-13T01:51:19.933Z,4.07
2018-08-13T01:53:50.074Z,3.93
2018-08-13T01:56:19.786Z,3.97
2018-08-13T01:58:49.299Z,3.77
2018-08-13T02:01:19.368Z,3.00
2018-08-13T02:03:48.949Z,3.27
2018-08-13T02:06:18.729Z,2.80
2018-08-13T02:08:48.885Z,3.37
2018-08-13T02:11:18.949Z,4.73
2018-08-13T02:13:48.750Z,4.10
2018-08-13T02:16:18.721Z,3.10
2018-08-13T02:18:48.489Z,2.70
2018-08-13T02:21:18.170Z,2.83
2018-08-13T02:23:48.429Z,4.30
2018-08-13T02:26:18.122Z,4.47
2018-08-13T02:28:48.145Z,3.50
2018-08-13T02:31:18.291Z,3.20
2018-08-13T02:33:48.450Z,3.30
2018-08-13T02:36:18.053Z,4.30
2018-08-13T02:38:47.945Z,3.27
2018-08-13T02:41:17.973Z,4.63
2018-08-13T02:43:47.725Z,3.23
2018-08-13T02:46:21.313Z,3.43
2018-08-13T02:48:51.261Z,4.33
2018-08-13T02:51:21.154Z,3.30
2018-08-13T02:53:51.425Z,3.30
2018-08-13T02:56:21.225Z,3.43
2018-08-13T02:58:51.001Z,3.57
2018-08-13T03:01:28.813Z,3.63
2018-08-13T03:03:58.889Z,6.13
2018-08-13T03:06:28.897Z,6.03
2018-08-13T03:08:58.514Z,4.77
2018-08-13T03:11:28.173Z,3.43
2018-08-13T03:13:58.307Z,3.50
2018-08-13T03:16:28.297Z,3.30
2018-08-13T03:18:57.990Z,4.33
2018-08-13T03:21:28.467Z,4.73
2018-08-13T03:23:58.360Z,3.20
2018-08-13T03:26:28.055Z,3.70
2018-08-13T03:28:57.596Z,3.80
2018-08-13T03:31:27.306Z,3.80
2018-08-13T03:33:57.530Z,3.57
2018-08-13T03:36:27.125Z,4.10
2018-08-13T03:38:56.785Z,5.33
2018-08-13T03:41:26.888Z,5.20
2018-08-13T03:43:56.792Z,6.30
2018-08-13T03:46:26.365Z,4.77
2018-08-13T03:48:57.045Z,4.30
2018-08-13T03:51:27.828Z,4.07
2018-08-13T03:53:57.356Z,6.20
2018-08-13T03:56:27.432Z,5.87
2018-08-13T03:58:57.010Z,4.07
2018-08-13T04:01:26.842Z,4.40
2018-08-13T04:03:57.334Z,4.10
2018-08-13T04:06:26.939Z,5.53
2018-08-13T04:08:56.625Z,4.40
2018-08-13T04:11:26.217Z,4.73
2018-08-13T04:13:55.989Z,4.27
2018-08-13T04:16:26.161Z,4.13
2018-08-13T04:18:56.038Z,5.13
2018-08-13T04:21:25.623Z,5.80
2018-08-13T04:23:55.409Z,3.97
2018-08-13T04:26:25.132Z,6.17
2018-08-13T04:28:54.705Z,4.80
2018-08-13T04:31:26.245Z,9.47
2018-08-13T04:33:55.931Z,5.50
2018-08-13T04:36:25.502Z,5.37
2018-08-13T04:38:56.674Z,5.87
2018-08-13T04:41:26.901Z,4.20
2018-08-13T04:43:56.534Z,3.93
2018-08-13T04:46:28.425Z,4.47
2018-08-13T04:49:10.353Z,4.40
2018-08-13T04:51:39.929Z,4.00
2018-08-13T04:54:09.577Z,4.03
2018-08-13T04:56:39.830Z,5.70
2018-08-13T04:59:09.837Z,3.50
2018-08-13T05:01:39.577Z,3.57
2018-08-13T05:04:09.051Z,5.00
2018-08-13T05:06:38.565Z,8.37
2018-08-13T05:09:09.861Z,3.73
2018-08-13T05:11:40.393Z,3.93
2018-08-13T05:14:10.010Z,5.13
2018-08-13T05:16:40.365Z,4.47
2018-08-13T05:19:12.193Z,5.20
2018-08-13T05:21:42.047Z,6.60
2018-08-13T05:24:12.437Z,8.50
2018-08-13T05:26:42.434Z,6.97
2018-08-13T05:29:12.122Z,6.27
2018-08-13T05:31:42.113Z,3.97
2018-08-13T05:34:12.028Z,3.23
2018-08-13T05:36:43.371Z,4.87
2018-08-13T05:39:16.561Z,4.77
2018-08-13T05:41:46.557Z,4.13
2018-08-13T05:44:16.567Z,3.50
2018-08-13T05:46:46.566Z,4.03
2018-08-13T05:49:16.282Z,6.73
2018-08-13T05:51:46.101Z,4.97
2018-08-13T05:54:16.462Z,5.17
2018-08-13T05:56:46.229Z,4.20
2018-08-13T05:59:16.021Z,6.00
2018-08-13T06:01:46.830Z,4.30
2018-08-13T06:04:16.678Z,3.80
2018-08-13T06:06:46.693Z,3.37
2018-08-13T06:09:20.702Z,5.00
2018-08-13T06:11:50.449Z,4.03
2018-08-13T06:14:20.156Z,3.93
2018-08-13T06:16:49.925Z,3.43
2018-08-13T06:19:37.299Z,3.10
2018-08-13T06:22:07.418Z,5.63
2018-08-13T06:24:37.406Z,4.37
2018-08-13T06:27:07.399Z,5.53
2018-08-13T06:29:37.094Z,5.13
2018-08-13T06:32:07.350Z,4.20
2018-08-13T06:34:37.153Z,4.67
2018-08-13T06:37:07.516Z,6.20
2018-08-13T06:39:37.630Z,6.00
2018-08-13T06:42:07.381Z,6.87
2018-08-13T06:44:36.933Z,4.23
2018-08-13T06:47:07.658Z,7.47
2018-08-13T06:50:02.167Z,4.33
2018-08-13T06:52:32.149Z,6.87
2018-08-13T06:55:02.393Z,5.97
2018-08-13T06:57:31.994Z,3.70
2018-08-13T07:00:02.293Z,4.27
2018-08-13T07:02:33.193Z,5.00
2018-08-13T07:05:03.488Z,3.37
2018-08-13T07:07:33.231Z,4.87
2018-08-13T07:10:16.625Z,4.73
2018-08-13T07:12:57.951Z,5.17
2018-08-13T07:15:27.866Z,4.97
2018-08-13T07:17:57.814Z,4.80
2018-08-13T07:20:27.538Z,5.30
2018-08-13T07:22:57.145Z,7.87
2018-08-13T07:25:27.294Z,6.07
2018-08-13T07:27:56.939Z,6.73
2018-08-13T07:30:26.522Z,5.60
2018-08-13T07:32:56.182Z,6.20
2018-08-13T07:35:26.366Z,4.37
2018-08-13T07:37:55.998Z,5.20
2018-08-13T07:40:26.499Z,9.47
2018-08-13T07:42:56.925Z,5.57
2018-08-13T07:45:26.569Z,4.23
2018-08-13T07:47:56.448Z,4.97
2018-08-13T07:50:26.448Z,8.23
2018-08-13T07:52:56.062Z,4.23
2018-08-13T07:55:25.694Z,4.23
2018-08-13T07:57:55.617Z,8.73
2018-08-13T08:00:25.166Z,7.00
2018-08-13T08:02:54.683Z,5.57
2018-08-13T08:05:24.646Z,6.53
2018-08-13T08:07:54.269Z,6.63
2018-08-13T08:10:23.916Z,5.70
2018-08-13T08:12:53.946Z,5.50
2018-08-13T08:15:23.666Z,6.27
2018-08-13T08:17:53.188Z,4.17
2018-08-13T08:20:23.165Z,4.33
2018-08-13T08:23:00.350Z,8.37
2018-08-13T08:25:30.081Z,10.57
2018-08-13T08:28:00.092Z,6.97
2018-08-13T08:30:29.646Z,3.80
2018-08-13T08:32:59.169Z,5.73
2018-08-13T08:35:28.699Z,4.93
2018-08-13T08:37:58.344Z,8.97
2018-08-13T08:40:27.819Z,6.30
2018-08-13T08:42:57.660Z,4.97
2018-08-13T08:45:28.596Z,8.00
2018-08-13T08:47:58.695Z,7.30
2018-08-13T08:50:28.121Z,5.00
2018-08-13T08:52:57.658Z,5.63
2018-08-13T08:55:27.531Z,5.17
2018-08-13T08:57:57.005Z,5.87
2018-08-13T09:00:30.266Z,3.70
2018-08-13T09:03:00.203Z,5.70
2018-08-13T09:05:29.842Z,6.77
2018-08-13T09:07:59.482Z,5.20
2018-08-13T09:10:29.378Z,5.60
2018-08-13T09:12:58.882Z,5.93
2018-08-13T09:15:28.270Z,6.17
2018-08-13T09:20:10.554Z,3.40
2018-08-13T09:22:50.914Z,4.30
2018-08-13T09:25:31.059Z,6.17
2018-08-13T09:28:11.492Z,11.20
2018-08-13T09:30:51.775Z,4.77
2018-08-13T09:33:32.055Z,9.87
2018-08-13T09:36:01.672Z,6.73
2018-08-13T09:38:31.312Z,4.57
2018-08-13T09:41:01.219Z,6.27
2018-08-13T09:43:30.695Z,4.27
2018-08-13T09:46:00.231Z,4.40
2018-08-13T09:48:30.587Z,5.27
2018-08-13T09:51:00.191Z,5.03
2018-08-13T09:53:29.759Z,3.20
2018-08-13T09:56:03.510Z,4.70
2018-08-13T09:58:32.987Z,4.57
2018-08-13T10:01:09.675Z,6.43
2018-08-13T10:03:39.632Z,5.60
2018-08-13T10:06:09.233Z,5.37
2018-08-13T10:08:39.248Z,4.63
2018-08-13T10:11:08.702Z,3.50
2018-08-13T10:13:38.090Z,3.33
2018-08-13T10:16:07.620Z,7.47
2018-08-13T10:18:37.044Z,4.17
2018-08-13T10:21:06.552Z,7.93
2018-08-13T10:23:36.295Z,3.40
2018-08-13T10:26:05.751Z,3.40
2018-08-13T10:28:35.195Z,3.37
2018-08-13T10:31:05.015Z,2.93
2018-08-13T10:33:35.548Z,2.83
2018-08-13T10:36:06.132Z,3.63
2018-08-13T10:38:35.631Z,2.63
2018-08-13T10:41:05.262Z,3.70
2018-08-13T10:43:34.805Z,3.80
2018-08-13T10:46:04.254Z,2.73
2018-08-13T10:48:33.694Z,4.30
2018-08-13T10:51:03.122Z,3.83
2018-08-13T10:53:32.870Z,3.10
2018-08-13T10:56:02.920Z,2.23
2018-08-13T10:58:32.538Z,2.00
2018-08-13T11:01:02.063Z,7.10
2018-08-13T11:03:32.052Z,4.37
2018-08-13T11:06:01.539Z,3.37
2018-08-13T11:08:32.071Z,3.00
2018-08-13T11:11:01.477Z,6.20
2018-08-13T11:13:31.139Z,4.40
2018-08-13T11:16:01.442Z,3.83
2018-08-13T11:18:33.634Z,3.20
2018-08-13T11:21:03.146Z,29.07
2018-08-13T11:23:33.004Z,3.20
2018-08-13T11:26:02.474Z,5.67
2018-08-13T11:28:32.366Z,4.00
2018-08-13T11:31:02.240Z,4.00
2018-08-13T11:33:31.675Z,3.17
2018-08-13T11:36:01.199Z,3.17
2018-08-13T11:38:31.110Z,2.67
2018-08-13T11:41:00.522Z,2.80
2018-08-13T11:43:30.086Z,2.80
2018-08-13T11:45:59.881Z,4.50
2018-08-13T11:48:29.315Z,4.97
2018-08-13T11:50:58.974Z,2.80
2018-08-13T11:53:28.408Z,2.27
2018-08-13T11:55:57.887Z,4.13
2018-08-13T11:58:27.398Z,4.03
2018-08-13T12:00:56.917Z,3.30
2018-08-13T12:03:26.366Z,4.83
2018-08-13T12:05:56.257Z,5.13
2018-08-13T12:08:25.799Z,5.43
2018-08-13T12:10:55.237Z,2.60
2018-08-13T12:13:25.087Z,4.67
2018-08-13T12:15:54.653Z,5.80
2018-08-13T12:18:24.111Z,7.73
2018-08-13T12:20:54.671Z,4.67
2018-08-13T12:23:24.183Z,2.30
2018-08-13T12:25:53.669Z,4.70
2018-08-13T12:28:23.533Z,5.07
2018-08-13T12:30:52.986Z,4.47
2018-08-13T12:33:22.595Z,5.60
2018-08-13T12:35:52.483Z,3.30
2018-08-13T12:38:22.080Z,4.97
2018-08-13T12:40:51.635Z,5.37
2018-08-13T12:43:21.449Z,3.83
2018-08-13T12:45:51.275Z,3.20
2018-08-13T12:48:20.815Z,5.00
2018-08-13T12:50:50.741Z,5.67
2018-08-13T12:53:20.188Z,3.77
2018-08-13T12:55:49.783Z,5.33
2018-08-13T12:58:19.520Z,7.73
2018-08-13T13:00:53.415Z,4.27
2018-08-13T13:03:22.846Z,7.90
2018-08-13T13:05:52.814Z,6.57
2018-08-13T13:08:22.916Z,6.83
2018-08-13T13:10:52.449Z,5.80
2018-08-13T13:13:23.246Z,6.40
2018-08-13T13:15:52.907Z,4.97
2018-08-13T13:18:22.579Z,9.50
2018-08-13T13:20:52.199Z,7.23
2018-08-13T13:23:24.581Z,7.43
2018-08-13T13:25:54.638Z,4.23
2018-08-13T13:28:25.650Z,6.67
2018-08-13T13:33:35.902Z,4.63
2018-08-13T13:36:06.183Z,9.57
2018-08-13T13:38:43.177Z,9.73
2018-08-13T13:41:13.043Z,4.53
2018-08-13T13:43:42.964Z,3.00
2018-08-13T13:46:13.421Z,7.23
2018-08-13T13:48:42.956Z,6.67
2018-08-13T13:51:16.306Z,4.17
2018-08-13T13:53:46.683Z,4.63
2018-08-13T13:56:16.318Z,5.87
2018-08-13T13:58:45.781Z,5.17
2018-08-13T14:01:16.667Z,6.03
2018-08-13T14:03:46.256Z,3.93
2018-08-13T14:06:15.763Z,4.90
2018-08-13T14:08:47.916Z,5.00
2018-08-13T14:11:18.038Z,5.27
2018-08-13T14:13:48.090Z,4.53
2018-08-13T14:16:17.672Z,2.33
2018-08-13T14:18:47.575Z,4.03
2018-08-13T14:21:17.066Z,2.93
2018-08-13T14:23:46.681Z,2.27
2018-08-13T14:26:16.764Z,5.87
2018-08-13T14:28:46.415Z,2.00
2018-08-13T14:31:15.898Z,4.03
2018-08-13T14:33:45.966Z,3.90
2018-08-13T14:36:16.206Z,2.40
2018-08-13T14:38:46.862Z,5.87
2018-08-13T14:41:16.633Z,2.60
2018-08-13T14:43:46.178Z,3.47
2018-08-13T14:46:15.684Z,2.10
2018-08-13T14:48:45.599Z,3.20
2018-08-13T14:51:15.179Z,2.53
2018-08-13T14:53:44.685Z,4.50
2018-08-13T14:56:14.796Z,3.07
2018-08-13T14:58:46.262Z,3.30
2018-08-13T15:01:16.820Z,3.90
2018-08-13T15:03:46.699Z,2.90
2018-08-13T15:06:16.530Z,2.47
2018-08-13T15:08:46.520Z,3.30
2018-08-13T15:11:16.775Z,3.97
2018-08-13T15:13:48.845Z,3.63
2018-08-13T15:16:18.667Z,2.60
2018-08-13T15:18:48.971Z,2.30
2018-08-13T15:21:27.424Z,3.80
2018-08-13T15:23:56.852Z,2.67
2018-08-13T15:26:26.610Z,2.77
2018-08-13T15:28:56.052Z,2.43
2018-08-13T15:31:25.791Z,2.63
2018-08-13T15:33:56.062Z,2.90
2018-08-13T15:36:26.438Z,2.97
2018-08-13T15:38:57.605Z,2.80
2018-08-13T15:41:28.782Z,3.07
2018-08-13T15:43:58.762Z,5.47
2018-08-13T15:46:28.335Z,6.50
2018-08-13T15:48:59.281Z,31.97
2018-08-13T15:51:28.924Z,5.90
2018-08-13T15:53:58.383Z,4.50
2018-08-13T15:56:27.860Z,3.57
2018-08-13T15:58:57.322Z,5.47
2018-08-13T16:01:27.292Z,3.60
2018-08-13T16:03:56.866Z,4.30
2018-08-13T16:06:26.301Z,3.13
2018-08-13T16:08:56.206Z,5.37
2018-08-13T16:11:25.710Z,3.23
2018-08-13T16:13:55.122Z,4.33
2018-08-13T16:16:25.124Z,2.73
2018-08-13T16:18:54.705Z,2.87
2018-08-13T16:21:31.360Z,2.90
2018-08-13T16:24:06.086Z,3.33
2018-08-13T16:26:36.389Z,3.80
2018-08-13T16:29:07.058Z,5.07
2018-08-13T16:31:38.502Z,4.67
2018-08-13T16:34:08.242Z,4.10
2018-08-13T16:36:38.118Z,4.80
2018-08-13T16:39:10.582Z,2.63
2018-08-13T16:41:40.968Z,4.90
2018-08-13T16:44:12.096Z,5.00
2018-08-13T16:46:41.677Z,2.67
2018-08-13T16:49:11.106Z,5.93
2018-08-13T16:51:41.182Z,4.13
2018-08-13T16:54:10.767Z,3.27
2018-08-13T16:56:40.736Z,4.93
2018-08-13T16:59:11.027Z,4.83
2018-08-13T17:01:44.805Z,4.83
2018-08-13T17:04:15.558Z,5.70
2018-08-13T17:06:45.427Z,6.37
2018-08-13T17:09:14.846Z,3.77
2018-08-13T17:11:44.318Z,5.60
2018-08-13T17:14:15.033Z,5.33
2018-08-13T17:16:46.250Z,7.03
2018-08-13T17:19:15.749Z,5.33
2018-08-13T17:21:45.735Z,4.60
2018-08-13T17:24:15.954Z,4.13
2018-08-13T17:26:45.837Z,3.57
2018-08-13T17:29:15.326Z,4.80
2018-08-13T17:31:44.895Z,6.50
2018-08-13T17:34:14.924Z,6.83
2018-08-13T17:36:44.396Z,6.33
2018-08-13T17:39:15.199Z,9.23
2018-08-13T17:41:45.594Z,7.57
2018-08-13T17:44:27.863Z,8.87
2018-08-13T17:46:57.869Z,10.97
2018-08-13T17:49:29.902Z,9.30
2018-08-13T17:52:00.275Z,10.50
2018-08-13T17:54:30.222Z,8.13
2018-08-13T17:57:00.024Z,8.83
2018-08-13T17:59:30.940Z,11.57
2018-08-13T18:02:00.835Z,13.37
2018-08-13T18:04:32.090Z,9.47
2018-08-13T18:07:02.029Z,11.40
2018-08-13T18:09:31.767Z,12.00
2018-08-13T18:12:01.545Z,14.23
2018-08-13T18:14:31.070Z,13.77
2018-08-13T18:17:00.500Z,13.27
2018-08-13T18:19:32.009Z,14.23
2018-08-13T18:22:01.660Z,14.17
2018-08-13T18:24:31.399Z,13.20
2018-08-13T18:27:02.568Z,13.93
2018-08-13T18:29:32.320Z,15.63
2018-08-13T18:32:01.806Z,14.00
2018-08-13T18:34:31.291Z,13.27
2018-08-13T18:37:02.778Z,12.47
2018-08-13T18:39:32.827Z,16.60
2018-08-13T18:42:02.399Z,13.73
2018-08-13T18:44:32.090Z,13.13
2018-08-13T18:47:03.940Z,15.43
2018-08-13T18:49:34.116Z,15.87
2018-08-13T18:52:04.478Z,17.53
2018-08-13T18:54:34.285Z,19.70
2018-08-13T18:57:05.217Z,18.03
2018-08-13T18:59:34.707Z,19.37
2018-08-13T19:02:04.523Z,19.87
2018-08-13T19:04:33.968Z,21.50
2018-08-13T19:07:04.227Z,21.57
2018-08-13T19:09:34.121Z,20.87
2018-08-13T19:12:03.647Z,18.00
2018-08-13T19:14:33.691Z,20.03
2018-08-13T19:17:03.090Z,17.47
2018-08-13T19:19:32.487Z,16.13
2018-08-13T19:22:02.295Z,15.13
2018-08-13T19:24:32.700Z,16.70
2018-08-13T19:27:02.512Z,17.07
2018-08-13T19:29:32.502Z,14.43
2018-08-13T19:32:01.903Z,16.53
2018-08-13T19:34:31.341Z,14.87
2018-08-13T19:37:01.190Z,16.13
2018-08-13T19:39:30.648Z,13.67
2018-08-13T19:42:00.190Z,13.77
2018-08-13T19:44:31.271Z,13.33
2018-08-13T19:47:00.877Z,13.87
2018-08-13T19:49:30.391Z,14.73
2018-08-13T19:52:00.245Z,14.60
2018-08-13T19:54:29.994Z,14.93
2018-08-13T19:56:59.745Z,15.23
2018-08-13T19:59:29.152Z,19.20
2018-08-13T20:01:58.803Z,17.83
2018-08-13T20:04:28.403Z,17.90
2018-08-13T20:06:58.464Z,17.93
2018-08-13T20:09:28.483Z,19.23
2018-08-13T20:11:58.156Z,21.10
2018-08-13T20:14:27.703Z,18.60
2018-08-13T20:16:57.812Z,17.57
2018-08-13T20:19:27.319Z,18.10
2018-08-13T20:21:56.876Z,20.50
2018-08-13T20:24:28.502Z,18.00
2018-08-13T20:26:58.555Z,18.17
2018-08-13T20:29:28.864Z,17.97
2018-08-13T20:31:59.290Z,18.07
2018-08-13T20:34:28.895Z,18.07
2018-08-13T20:36:59.461Z,16.63
2018-08-13T20:39:29.376Z,15.60
2018-08-13T20:41:59.281Z,16.13
2018-08-13T20:44:51.507Z,15.63
2018-08-13T20:47:23.795Z,13.87
2018-08-13T20:49:56.646Z,14.50
2018-08-13T20:52:28.110Z,13.33
2018-08-13T20:54:57.853Z,13.17
2018-08-13T20:57:27.450Z,12.13
2018-08-13T20:59:56.871Z,13.23
2018-08-13T21:02:26.619Z,13.00
2018-08-13T21:04:56.381Z,13.90
2018-08-13T21:07:25.951Z,14.57
2018-08-13T21:09:55.943Z,15.10
2018-08-13T21:12:25.598Z,15.40
2018-08-13T21:14:55.379Z,17.60
2018-08-13T21:17:25.367Z,16.67
2018-08-13T21:19:55.894Z,15.63
2018-08-13T21:22:25.512Z,17.87
2018-08-13T21:24:55.178Z,18.67
2018-08-13T21:27:24.638Z,19.93
2018-08-13T21:29:54.445Z,21.50
2018-08-13T21:32:23.863Z,22.13
2018-08-13T21:34:53.689Z,23.00
2018-08-13T21:37:23.683Z,22.47
2018-08-13T21:39:53.210Z,23.80
2018-08-13T21:42:22.769Z,27.10
2018-08-13T21:44:52.683Z,27.83
2018-08-13T21:47:22.548Z,27.40
2018-08-13T21:49:52.220Z,28.00
2018-08-13T21:52:21.970Z,27.10
2018-08-13T21:54:51.566Z,30.47
2018-08-13T21:57:24.375Z,34.27
2018-08-13T21:59:55.843Z,33.47
2018-08-13T22:02:25.423Z,36.00
2018-08-13T22:04:54.863Z,36.40
2018-08-13T22:07:24.606Z,34.83
2018-08-13T22:09:54.067Z,37.90
2018-08-13T22:12:23.676Z,37.80
2018-08-13T22:14:53.619Z,43.27
2018-08-13T22:17:23.257Z,44.03
2018-08-13T22:19:52.719Z,44.10
2018-08-13T22:22:22.596Z,47.17
2018-08-13T22:25:03.258Z,47.87
2018-08-13T22:27:32.778Z,47.43
2018-08-13T22:30:02.842Z,48.73
2018-08-13T22:32:32.437Z,50.63
2018-08-13T22:35:01.904Z,56.67
2018-08-13T22:37:31.705Z,52.13
2018-08-13T22:40:01.269Z,59.67
2018-08-13T22:42:30.709Z,64.60
2018-08-13T22:45:01.159Z,65.67
2018-08-13T22:47:30.838Z,66.70
2018-08-13T22:50:00.305Z,72.03
2018-08-13T22:52:30.439Z,68.53
2018-08-13T22:54:59.948Z,70.30
2018-08-13T22:57:29.409Z,72.27
2018-08-13T22:59:59.146Z,69.63
2018-08-13T23:02:28.798Z,71.10
2018-08-13T23:04:58.331Z,76.20
2018-08-13T23:07:28.043Z,77.30
2018-08-13T23:09:57.523Z,74.07
2018-08-13T23:12:27.039Z,80.00
2018-08-13T23:14:56.860Z,88.07
2018-08-13T23:17:26.324Z,83.70
2018-08-13T23:19:56.183Z,82.60
2018-08-13T23:23:07.688Z,84.27
2018-08-13T23:25:38.051Z,79.47
2018-08-13T23:28:11.582Z,76.97
2018-08-13T23:30:41.076Z,80.13
2018-08-13T23:33:10.596Z,82.80
2018-08-13T23:35:40.370Z,78.13
2018-08-13T23:38:09.807Z,81.13
2018-08-13T23:40:39.251Z,78.63
2018-08-13T23:43:09.015Z,78.10
2018-08-13T23:45:38.608Z,79.20
2018-08-13T23:48:08.346Z,74.03
2018-08-13T23:50:38.193Z,70.83
2018-08-13T23:53:07.661Z,73.13
2018-08-13T23:55:38.826Z,68.60
2018-08-13T23:58:12.820Z,70.30
